Time,TemperatureF,DewpointF,PressureIn,WindDirection,WindDirectionDegrees,WindSpeedMPH,WindSpeedGustMPH,Humidity,HourlyPrecipIn,Conditions,Clouds,dailyrainin,SoftwareType,DateUTC
2014-09-21 00:03:00,63.6,60.9,29.71,WSW,250,1.0,5.0,91,-1.03,,,0.00,Weather View 32 v70,2014-09-21 04:03:00,
2014-09-21 00:09:00,63.7,61.0,29.70,WSW,249,0.0,5.0,91,-1.03,,,0.00,Weather View 32 v70,2014-09-21 04:09:00,
2014-09-21 00:18:00,63.7,61.0,29.70,SSW,213,1.0,5.0,91,-1.03,,,0.00,Weather View 32 v70,2014-09-21 04:18:00,
2014-09-21 00:23:00,63.7,61.0,29.70,SW,229,0.0,5.0,91,-1.03,,,0.00,Weather View 32 v70,2014-09-21 04:23:00,
2014-09-21 00:29:00,63.7,61.0,29.70,South,181,0.0,4.0,91,-1.03,,,0.00,Weather View 32 v70,2014-09-21 04:29:00,
2014-09-21 00:34:00,63.7,61.0,29.70,SSE,152,0.0,4.0,91,-1.03,,,0.00,Weather View 32 v70,2014-09-21 04:34:00,
2014-09-21 00:44:00,63.8,61.1,29.70,SSE,165,1.0,4.0,91,-1.03,,,0.00,Weather View 32 v70,2014-09-21 04:44:00,
2014-09-21 00:49:00,63.8,61.1,29.69,SE,135,0.0,5.0,91,-1.03,,,0.00,Weather View 32 v70,2014-09-21 04:49:00,
2014-09-21 00:54:00,63.8,61.1,29.69,SE,135,0.0,5.0,91,-1.03,,,0.00,Weather View 32 v70,2014-09-21 04:54:00,
2014-09-21 00:59:00,63.9,61.5,29.69,South,175,0.0,5.0,92,0.00,,,0.00,Weather View 32 v70,2014-09-21 04:59:00,
2014-09-21 01:09:00,64.0,61.6,29.69,SW,233,0.0,5.0,92,0.00,,,0.00,Weather View 32 v70,2014-09-21 05:09:00,
2014-09-21 01:14:00,64.0,61.6,29.69,WSW,257,1.0,6.0,92,0.00,,,0.00,Weather View 32 v70,2014-09-21 05:14:00,
2014-09-21 01:19:00,64.1,61.7,29.69,ESE,115,0.0,6.0,92,0.00,,,0.00,Weather View 32 v70,2014-09-21 05:19:00,
2014-09-21 01:25:00,64.1,61.7,29.68,NW,325,2.0,6.0,92,0.00,,,0.00,Weather View 32 v70,2014-09-21 05:25:00,
2014-09-21 01:34:00,64.2,61.8,29.68,ENE,69,0.0,6.0,92,0.00,,,0.00,Weather View 32 v70,2014-09-21 05:34:00,
2014-09-21 01:39:00,64.2,61.8,29.68,South,190,0.0,6.0,92,0.00,,,0.00,Weather View 32 v70,2014-09-21 05:39:00,
2014-09-21 01:44:00,64.2,61.8,29.68,SSE,165,0.0,6.0,92,0.00,,,0.00,Weather View 32 v70,2014-09-21 05:44:00,
2014-09-21 01:49:00,64.3,61.9,29.68,East,84,0.0,6.0,92,0.00,,,0.00,Weather View 32 v70,2014-09-21 05:49:00,
2014-09-21 01:57:00,64.3,61.9,29.67,East,86,2.0,6.0,92,0.00,,,0.00,Weather View 32 v70,2014-09-21 05:57:00,
2014-09-21 02:04:00,64.4,62.0,29.67,WSW,249,1.0,6.0,92,0.00,,,0.00,Weather View 32 v70,2014-09-21 06:04:00,
2014-09-21 02:09:00,64.4,62.0,29.66,West,277,0.0,6.0,92,0.00,,,0.00,Weather View 32 v70,2014-09-21 06:09:00,
2014-09-21 02:14:00,64.3,61.9,29.65,WSW,241,0.0,6.0,92,0.00,,,0.00,Weather View 32 v70,2014-09-21 06:14:00,
2014-09-21 02:19:00,64.3,61.9,29.65,NW,318,0.0,6.0,92,0.00,,,0.00,Weather View 32 v70,2014-09-21 06:19:00,
2014-09-21 02:29:00,64.3,61.9,29.65,NW,318,0.0,5.0,92,0.00,,,0.00,Weather View 32 v70,2014-09-21 06:29:00,
2014-09-21 02:34:00,64.3,61.9,29.64,West,263,0.0,5.0,92,0.00,,,0.00,Weather View 32 v70,2014-09-21 06:34:00,
2014-09-21 02:39:00,64.3,61.9,29.64,West,263,0.0,5.0,92,0.00,,,0.00,Weather View 32 v70,2014-09-21 06:39:00,
2014-09-21 02:44:00,64.3,61.9,29.63,WNW,292,1.0,5.0,92,0.00,,,0.00,Weather View 32 v70,2014-09-21 06:44:00,
2014-09-21 02:49:00,64.3,61.9,29.63,East,87,3.0,5.0,92,0.00,,,0.00,Weather View 32 v70,2014-09-21 06:49:00,
2014-09-21 02:58:00,64.4,62.0,29.63,SSE,163,0.0,5.0,92,0.00,,,0.00,Weather View 32 v70,2014-09-21 06:58:00,
2014-09-21 03:04:00,64.5,62.4,29.62,WSW,256,4.0,4.0,93,0.00,,,0.00,Weather View 32 v70,2014-09-21 07:04:00,
2014-09-21 03:14:00,64.5,62.4,29.61,SE,130,1.0,4.0,93,0.00,,,0.00,Weather View 32 v70,2014-09-21 07:14:00,
2014-09-21 03:19:00,64.5,62.4,29.61,ESE,116,0.0,4.0,93,0.00,,,0.00,Weather View 32 v70,2014-09-21 07:19:00,
2014-09-21 03:24:00,64.5,62.4,29.60,ESE,122,0.0,4.0,93,0.00,,,0.00,Weather View 32 v70,2014-09-21 07:24:00,
2014-09-21 03:29:00,64.5,62.4,29.60,SSE,161,0.0,4.0,93,0.00,,,0.00,Weather View 32 v70,2014-09-21 07:29:00,
2014-09-21 03:34:00,64.5,62.4,29.60,NNW,338,2.0,4.0,93,0.00,,,0.00,Weather View 32 v70,2014-09-21 07:34:00,
2014-09-21 03:44:00,64.3,62.2,29.59,South,187,0.0,4.0,93,0.00,,,0.00,Weather View 32 v70,2014-09-21 07:44:00,
2014-09-21 03:49:00,64.3,62.2,29.59,West,277,0.0,4.0,93,0.00,,,0.00,Weather View 32 v70,2014-09-21 07:49:00,
2014-09-21 03:54:00,64.3,62.2,29.59,South,178,0.0,4.0,93,0.00,,,0.00,Weather View 32 v70,2014-09-21 07:54:00,
2014-09-21 03:59:00,64.2,62.1,29.58,South,178,0.0,4.0,93,0.00,,,0.00,Weather View 32 v70,2014-09-21 07:59:00,
2014-09-21 04:04:00,64.2,62.1,29.57,SSE,151,1.0,4.0,93,0.00,,,0.00,Weather View 32 v70,2014-09-21 08:04:00,
2014-09-21 04:09:00,64.1,62.0,29.58,South,186,0.0,4.0,93,0.00,,,0.00,Weather View 32 v70,2014-09-21 08:09:00,
2014-09-21 04:14:00,64.0,61.9,29.58,SW,228,0.0,4.0,93,0.00,,,0.00,Weather View 32 v70,2014-09-21 08:14:00,
2014-09-21 04:19:00,64.0,61.9,29.57,West,280,3.0,4.0,93,0.00,,,0.00,Weather View 32 v70,2014-09-21 08:19:00,
2014-09-21 04:29:00,64.0,61.9,29.57,WNW,284,0.0,4.0,93,0.00,,,0.00,Weather View 32 v70,2014-09-21 08:29:00,
2014-09-21 04:34:00,64.0,61.9,29.56,WSW,254,0.0,4.0,93,0.00,,,0.00,Weather View 32 v70,2014-09-21 08:34:00,
2014-09-21 04:39:00,63.9,61.8,29.55,WNW,300,0.0,4.0,93,0.00,,,0.00,Weather View 32 v70,2014-09-21 08:39:00,
2014-09-21 04:44:00,64.0,61.9,29.54,ESE,112,0.0,5.0,93,0.00,,,0.00,Weather View 32 v70,2014-09-21 08:44:00,
2014-09-21 04:49:00,64.0,61.9,29.54,WSW,254,1.0,5.0,93,0.00,,,0.00,Weather View 32 v70,2014-09-21 08:49:00,
2014-09-21 04:50:00,64.1,62.0,29.54,NNW,329,0.0,5.0,93,0.00,,,0.00,Weather View 32 v70,2014-09-21 08:50:00,
2014-09-21 04:59:00,64.1,62.0,29.54,NNW,329,0.0,5.0,93,0.00,,,0.00,Weather View 32 v70,2014-09-21 08:59:00,
2014-09-21 05:04:00,64.3,62.2,29.54,SE,129,0.0,5.0,93,0.05,,,0.05,Weather View 32 v70,2014-09-21 09:04:00,
2014-09-21 05:09:00,64.4,62.3,29.53,SSE,165,0.0,5.0,93,0.16,,,0.16,Weather View 32 v70,2014-09-21 09:09:00,
2014-09-21 05:14:00,64.5,62.4,29.53,WSW,248,2.0,5.0,93,0.16,,,0.16,Weather View 32 v70,2014-09-21 09:14:00,
2014-09-21 05:20:00,64.6,62.5,29.53,South,186,0.0,5.0,93,0.16,,,0.16,Weather View 32 v70,2014-09-21 09:20:00,
2014-09-21 05:25:00,64.7,62.6,29.53,SE,138,1.0,5.0,93,0.16,,,0.16,Weather View 32 v70,2014-09-21 09:25:00,
2014-09-21 05:30:00,64.8,62.7,29.52,East,101,0.0,6.0,93,0.16,,,0.16,Weather View 32 v70,2014-09-21 09:30:00,
2014-09-21 05:39:00,64.9,62.8,29.52,East,86,1.0,6.0,93,0.16,,,0.16,Weather View 32 v70,2014-09-21 09:39:00,
2014-09-21 05:44:00,65.1,63.0,29.52,NNW,333,0.0,6.0,93,0.16,,,0.16,Weather View 32 v70,2014-09-21 09:44:00,
2014-09-21 05:50:00,65.2,63.1,29.52,North,360,0.0,6.0,93,0.16,,,0.16,Weather View 32 v70,2014-09-21 09:50:00,
2014-09-21 05:59:00,65.2,63.1,29.52,ESE,105,0.0,6.0,93,0.16,,,0.16,Weather View 32 v70,2014-09-21 09:59:00,
2014-09-21 06:04:00,65.5,63.4,29.53,NNW,333,0.0,6.0,93,0.11,,,0.16,Weather View 32 v70,2014-09-21 10:04:00,
2014-09-21 06:09:00,65.6,63.5,29.53,ENE,65,1.0,6.0,93,0.00,,,0.16,Weather View 32 v70,2014-09-21 10:09:00,
2014-09-21 06:19:00,64.2,62.1,29.53,South,178,3.0,13.0,93,0.06,,,0.22,Weather View 32 v70,2014-09-21 10:19:00,
2014-09-21 06:24:00,63.8,61.7,29.53,South,188,1.0,13.0,93,0.06,,,0.22,Weather View 32 v70,2014-09-21 10:24:00,
2014-09-21 06:29:00,63.7,61.6,29.53,NW,321,0.0,13.0,93,0.06,,,0.22,Weather View 32 v70,2014-09-21 10:29:00,
2014-09-21 06:34:00,63.6,61.5,29.54,NNW,343,3.0,13.0,93,0.06,,,0.22,Weather View 32 v70,2014-09-21 10:34:00,
2014-09-21 06:44:00,63.4,61.3,29.53,NW,322,0.0,13.0,93,0.06,,,0.22,Weather View 32 v70,2014-09-21 10:44:00,
2014-09-21 06:49:00,63.3,61.5,29.54,South,171,3.0,13.0,94,0.06,,,0.22,Weather View 32 v70,2014-09-21 10:49:00,
2014-09-21 06:51:00,63.2,61.4,29.54,WSW,240,0.0,13.0,94,0.06,,,0.22,Weather View 32 v70,2014-09-21 10:51:00,
2014-09-21 06:56:00,63.1,61.0,29.54,NW,318,0.0,13.0,93,0.07,,,0.23,Weather View 32 v70,2014-09-21 10:56:00,